Time;durP1;ratioP1;P1;durP2;ratioP2;P2;SDS_P1;SDS_P2;PMS_P1;PMS_P2;Temp;Humidity;BMP_temperature;BMP_pressure;BME280_temperature;BME280_humidity;BME280_pressure;Samples;Min_cycle;Max_cycle;Signal;HPM_P1;HPM_P2
2023/11/22 00:00:56;;;;;;;23.95;11.32;;;;;;;;;;6207883;23;20167;-90
2023/11/22 00:04:03;;;;;;;33.55;12.75;;;;;;;;;;6207321;23;20171;-90
2023/11/22 00:07:08;;;;;;;27.42;13.00;;;;;;;;;;6208856;22;20171;-89
2023/11/22 00:10:13;;;;;;;29.67;13.43;;;;;;;;;;6208853;23;20171;-92
2023/11/22 00:13:18;;;;;;;34.25;15.70;;;;;;;;;;6208278;23;20167;-88
2023/11/22 00:16:23;;;;;;;29.50;12.52;;;;;;;;;;6209267;23;20203;-89
2023/11/22 00:19:30;;;;;;;37.00;15.23;;;;;;;;;;6209932;22;20171;-90
2023/11/22 00:22:36;;;;;;;33.65;14.73;;;;;;;;;;6208592;22;20642;-91
2023/11/22 00:25:42;;;;;;;30.13;13.45;;;;;;;;;;6209334;23;20190;-90
2023/11/22 00:28:47;;;;;;;31.42;13.27;;;;;;;;;;6210287;23;20622;-91
2023/11/22 00:31:53;;;;;;;28.80;13.60;;;;;;;;;;6209207;23;20167;-89
2023/11/22 00:35:00;;;;;;;21.55;12.10;;;;;;;;;;6210194;23;20224;-89
2023/11/22 00:38:06;;;;;;;29.08;12.32;;;;;;;;;;6207740;23;20215;-91
2023/11/22 00:41:11;;;;;;;26.27;12.55;;;;;;;;;;6209072;23;20247;-91
2023/11/22 00:44:16;;;;;;;30.00;12.18;;;;;;;;;;6210196;23;20167;-88
2023/11/22 00:47:22;;;;;;;27.20;11.85;;;;;;;;;;6208573;23;20163;-88
2023/11/22 00:50:28;;;;;;;21.60;11.18;;;;;;;;;;6209948;22;20200;-91
2023/11/22 00:53:34;;;;;;;26.45;10.88;;;;;;;;;;6211286;23;20197;-90
2023/11/22 00:56:39;;;;;;;19.92;9.98;;;;;;;;;;6210342;23;20171;-93
2023/11/22 00:59:45;;;;;;;13.18;6.70;;;;;;;;;;6213423;23;20218;-90
2023/11/22 01:02:51;;;;;;;15.80;7.95;;;;;;;;;;6210345;22;20207;-89
2023/11/22 01:06:03;;;;;;;12.18;6.18;;;;;;;;;;6213156;22;20238;-90
2023/11/22 01:09:08;;;;;;;11.65;5.90;;;;;;;;;;6211602;23;20167;-91
2023/11/22 01:12:13;;;;;;;10.70;6.40;;;;;;;;;;6210560;23;20615;-91
2023/11/22 01:15:18;;;;;;;12.98;6.13;;;;;;;;;;6212112;23;20634;-90
2023/11/22 01:18:23;;;;;;;11.20;5.90;;;;;;;;;;6211168;23;20147;-91
2023/11/22 01:21:30;;;;;;;11.30;5.63;;;;;;;;;;6211932;23;20162;-91
2023/11/22 01:24:37;;;;;;;8.95;4.35;;;;;;;;;;6211495;23;20174;-90
2023/11/22 01:27:42;;;;;;;8.25;4.38;;;;;;;;;;6211880;23;20190;-90
2023/11/22 01:30:47;;;;;;;9.60;4.82;;;;;;;;;;6210948;23;20164;-91
2023/11/22 01:33:52;;;;;;;9.50;4.88;;;;;;;;;;6212748;22;20220;-91
2023/11/22 01:36:59;;;;;;;10.75;5.10;;;;;;;;;;6212600;23;20259;-92
2023/11/22 01:40:04;;;;;;;11.52;5.13;;;;;;;;;;6212785;22;20159;-89
2023/11/22 01:43:09;;;;;;;11.02;4.63;;;;;;;;;;6212326;22;20640;-90
2023/11/22 01:46:22;;;;;;;8.45;4.60;;;;;;;;;;6212223;23;20210;-88
2023/11/22 01:49:27;;;;;;;7.63;4.40;;;;;;;;;;6212441;22;20171;-88
2023/11/22 01:52:34;;;;;;;10.10;5.03;;;;;;;;;;6211353;23;20162;-89
2023/11/22 01:55:39;;;;;;;9.98;5.50;;;;;;;;;;6212080;22;20155;-91
2023/11/22 01:58:44;;;;;;;11.40;5.55;;;;;;;;;;6212063;22;20163;-90
2023/11/22 02:01:50;;;;;;;10.93;5.20;;;;;;;;;;6211081;23;20174;-89
2023/11/22 02:04:55;;;;;;;8.68;4.55;;;;;;;;;;6211876;23;20492;-91
2023/11/22 02:08:02;;;;;;;7.40;3.92;;;;;;;;;;6211722;23;20218;-87
2023/11/22 02:11:07;;;;;;;6.47;3.40;;;;;;;;;;6212240;23;20194;-91
2023/11/22 02:14:13;;;;;;;2.45;1.50;;;;;;;;;;6210389;22;20170;-88
2023/11/22 02:17:18;;;;;;;2.55;1.10;;;;;;;;;;6211495;23;20191;-91
2023/11/22 02:20:23;;;;;;;2.38;1.20;;;;;;;;;;6210010;23;20626;-91
2023/11/22 02:23:30;;;;;;;3.63;1.77;;;;;;;;;;6208717;23;20159;-88
2023/11/22 02:26:36;;;;;;;2.13;1.30;;;;;;;;;;6210296;23;20194;-89
2023/11/22 02:29:41;;;;;;;1.75;1.10;;;;;;;;;;6209135;22;20227;-84
2023/11/22 02:32:47;;;;;;;1.48;1.00;;;;;;;;;;6210441;23;20172;-90
2023/11/22 02:35:52;;;;;;;1.15;0.90;;;;;;;;;;6210347;23;20168;-89
2023/11/22 02:38:58;;;;;;;1.10;0.70;;;;;;;;;;6209931;23;20645;-87
2023/11/22 02:42:04;;;;;;;1.73;1.00;;;;;;;;;;6210728;22;20190;-88
2023/11/22 02:45:09;;;;;;;1.63;1.10;;;;;;;;;;6210294;22;20219;-90
2023/11/22 02:48:15;;;;;;;1.77;1.00;;;;;;;;;;6210746;23;20171;-89
2023/11/22 02:51:21;;;;;;;1.45;0.90;;;;;;;;;;6210959;23;20278;-88
2023/11/22 02:54:28;;;;;;;1.20;0.85;;;;;;;;;;6209552;23;20171;-88
2023/11/22 02:57:34;;;;;;;0.90;0.80;;;;;;;;;;6210099;22;20187;-89
2023/11/22 03:00:39;;;;;;;1.48;0.90;;;;;;;;;;6211039;22;20174;-88
2023/11/22 03:03:44;;;;;;;3.17;0.90;;;;;;;;;;6210881;22;20166;-90
2023/11/22 03:06:49;;;;;;;1.23;0.90;;;;;;;;;;6209222;23;20250;-88
2023/11/22 03:10:00;;;;;;;1.40;1.00;;;;;;;;;;6208239;23;20224;-87
2023/11/22 03:13:05;;;;;;;1.85;1.00;;;;;;;;;;6207055;23;20171;-91
2023/11/22 03:16:10;;;;;;;3.95;1.10;;;;;;;;;;6207123;22;20170;-90
2023/11/22 03:19:15;;;;;;;1.70;1.00;;;;;;;;;;6208064;23;20166;-91
2023/11/22 03:22:21;;;;;;;1.27;0.90;;;;;;;;;;6206854;23;20174;-89
2023/11/22 03:25:28;;;;;;;1.47;0.90;;;;;;;;;;6206492;23;20493;-90
2023/11/22 03:28:33;;;;;;;1.83;1.13;;;;;;;;;;6205578;23;20503;-86
2023/11/22 03:31:39;;;;;;;2.20;1.23;;;;;;;;;;6206258;23;20218;-89
2023/11/22 03:34:45;;;;;;;1.03;0.93;;;;;;;;;;6207045;23;20610;-91
2023/11/22 03:37:49;;;;;;;0.90;0.77;;;;;;;;;;6207295;23;20206;-90
2023/11/22 03:40:57;;;;;;;1.37;1.07;;;;;;;;;;6209033;23;20183;-88
2023/11/22 03:44:02;;;;;;;3.03;1.10;;;;;;;;;;6206251;22;20155;-92
2023/11/22 03:47:07;;;;;;;2.40;1.17;;;;;;;;;;6208478;23;20199;-90
2023/11/22 03:50:12;;;;;;;1.87;1.10;;;;;;;;;;6207584;23;20500;-88
2023/11/22 03:53:17;;;;;;;1.30;1.00;;;;;;;;;;6208058;23;20842;-89
2023/11/22 03:56:23;;;;;;;1.83;1.10;;;;;;;;;;6206744;23;20218;-89
2023/11/22 03:59:29;;;;;;;1.50;0.90;;;;;;;;;;6207898;23;20504;-90
2023/11/22 04:02:34;;;;;;;1.93;1.00;;;;;;;;;;6207586;22;20626;-91
2023/11/22 04:05:38;;;;;;;1.60;1.00;;;;;;;;;;6207206;23;20175;-91
2023/11/22 04:08:43;;;;;;;1.20;0.90;;;;;;;;;;6208093;23;20214;-91
2023/11/22 04:11:50;;;;;;;2.30;1.40;;;;;;;;;;6207611;23;20175;-88
2023/11/22 04:14:55;;;;;;;1.70;1.10;;;;;;;;;;6207298;22;20166;-90
2023/11/22 04:18:00;;;;;;;1.70;1.20;;;;;;;;;;6206637;22;20171;-90
2023/11/22 04:21:05;;;;;;;2.07;1.40;;;;;;;;;;6207252;23;20187;-92
2023/11/22 04:24:12;;;;;;;44.87;3.67;;;;;;;;;;6208610;23;20191;-89
2023/11/22 04:27:18;;;;;;;4.28;1.30;;;;;;;;;;6208438;23;20628;-86
2023/11/22 04:30:23;;;;;;;2.33;1.50;;;;;;;;;;6208288;23;20171;-90
2023/11/22 04:33:28;;;;;;;2.80;1.40;;;;;;;;;;6206860;23;20219;-91
2023/11/22 04:36:33;;;;;;;2.50;1.53;;;;;;;;;;6208738;23;20190;-89
2023/11/22 04:39:39;;;;;;;2.87;1.73;;;;;;;;;;6208405;23;20194;-89
2023/11/22 04:42:48;;;;;;;3.13;1.80;;;;;;;;;;6208442;23;20167;-86
2023/11/22 04:45:53;;;;;;;2.63;1.80;;;;;;;;;;6208677;23;20171;-91
2023/11/22 04:48:59;;;;;;;2.63;1.70;;;;;;;;;;6207866;23;20163;-91
2023/11/22 04:52:04;;;;;;;2.97;1.60;;;;;;;;;;6208751;23;20162;-90
2023/11/22 04:55:09;;;;;;;2.00;1.50;;;;;;;;;;6208468;23;20172;-87
2023/11/22 04:58:16;;;;;;;3.00;1.70;;;;;;;;;;6208203;23;20154;-89
2023/11/22 05:01:21;;;;;;;2.50;2.00;;;;;;;;;;6209173;23;20175;-90
2023/11/22 05:04:26;;;;;;;3.77;2.30;;;;;;;;;;6209164;23;20182;-88
2023/11/22 05:07:32;;;;;;;3.10;2.07;;;;;;;;;;6208904;22;20210;-87
2023/11/22 05:10:37;;;;;;;2.83;1.80;;;;;;;;;;6207444;22;20179;-91
2023/11/22 05:13:43;;;;;;;3.10;2.10;;;;;;;;;;6208481;23;20215;-87
2023/11/22 05:16:52;;;;;;;3.47;1.80;;;;;;;;;;6206958;23;20167;-90
2023/11/22 05:19:57;;;;;;;4.93;2.00;;;;;;;;;;6207905;23;20214;-89
2023/11/22 05:23:02;;;;;;;3.60;2.00;;;;;;;;;;6207859;23;20174;-88
2023/11/22 05:26:07;;;;;;;2.63;1.90;;;;;;;;;;6207762;23;20167;-88
2023/11/22 05:29:14;;;;;;;2.80;1.80;;;;;;;;;;6207778;22;20171;-89
2023/11/22 05:32:19;;;;;;;7.53;3.13;;;;;;;;;;6209883;23;20287;-90
2023/11/22 05:35:24;;;;;;;4.97;2.37;;;;;;;;;;6210925;23;20167;-91
2023/11/22 05:38:33;;;;;;;3.50;2.10;;;;;;;;;;6207761;23;20191;-89
2023/11/22 05:41:38;;;;;;;3.87;2.30;;;;;;;;;;6208927;23;20222;-88
2023/11/22 05:44:45;;;;;;;3.73;2.33;;;;;;;;;;6207322;23;20250;-89
2023/11/22 05:47:50;;;;;;;2.80;1.83;;;;;;;;;;6209044;23;20532;-90
2023/11/22 05:50:55;;;;;;;3.27;2.10;;;;;;;;;;6208763;23;20167;-89
2023/11/22 05:54:00;;;;;;;11.37;2.13;;;;;;;;;;6210091;23;20168;-88
2023/11/22 05:57:06;;;;;;;3.27;2.30;;;;;;;;;;6211035;23;20171;-90
2023/11/22 06:00:14;;;;;;;3.43;2.20;;;;;;;;;;6209250;23;20171;-86
2023/11/22 06:03:19;;;;;;;3.50;2.30;;;;;;;;;;6209249;23;20191;-89
2023/11/22 06:06:24;;;;;;;5.10;2.30;;;;;;;;;;6212096;22;20300;-91
2023/11/22 06:09:29;;;;;;;3.00;2.00;;;;;;;;;;6212182;23;20167;-88
2023/11/22 06:12:34;;;;;;;5.27;2.20;;;;;;;;;;6211938;22;20215;-89
2023/11/22 06:15:42;;;;;;;2.70;1.97;;;;;;;;;;6213416;22;20238;-88
2023/11/22 06:18:48;;;;;;;3.97;2.13;;;;;;;;;;6212463;23;20192;-90
2023/11/22 06:21:53;;;;;;;3.00;2.00;;;;;;;;;;6211972;22;20231;-89
2023/11/22 06:24:58;;;;;;;3.37;2.30;;;;;;;;;;6211659;22;20239;-90
2023/11/22 06:28:03;;;;;;;4.37;2.03;;;;;;;;;;6212118;22;20198;-92
2023/11/22 06:31:09;;;;;;;2.43;1.63;;;;;;;;;;6210907;22;20179;-90
2023/11/22 06:34:15;;;;;;;3.87;2.30;;;;;;;;;;6211162;23;20167;-90
2023/11/22 06:37:20;;;;;;;4.10;1.60;;;;;;;;;;6232677;22;20155;-89
2023/11/22 06:40:26;;;;;;;3.80;2.00;;;;;;;;;;6212786;22;20207;-90
2023/11/22 06:43:31;;;;;;;4.73;1.60;;;;;;;;;;6211331;22;20179;-90
2023/11/22 06:46:37;;;;;;;3.20;2.03;;;;;;;;;;6213171;22;20220;-91
2023/11/22 06:49:43;;;;;;;7.30;4.87;;;;;;;;;;6212654;22;20604;-89
2023/11/22 06:52:49;;;;;;;3.27;1.87;;;;;;;;;;6211069;23;21395;-88
2023/11/22 06:55:55;;;;;;;2.60;1.87;;;;;;;;;;6212359;22;20254;-89
2023/11/22 06:59:00;;;;;;;2.43;1.33;;;;;;;;;;6213146;23;20166;-89
2023/11/22 07:02:07;;;;;;;9.33;1.93;;;;;;;;;;6216477;23;20167;-90
2023/11/22 07:08:10;;;;;;;5.23;2.00;;;;;;;;;;6226645;22;20211;-89
2023/11/22 07:11:23;;;;;;;2.57;1.40;;;;;;;;;;6212098;22;20242;-91
2023/11/22 07:14:29;;;;;;;3.00;1.33;;;;;;;;;;6212116;23;20167;-88
2023/11/22 07:17:36;;;;;;;2.67;1.50;;;;;;;;;;6211111;23;20199;-90
2023/11/22 07:20:42;;;;;;;2.70;1.50;;;;;;;;;;6208540;23;20174;-89
2023/11/22 07:23:47;;;;;;;4.30;1.50;;;;;;;;;;6210197;23;20151;-93
2023/11/22 07:26:53;;;;;;;3.23;1.80;;;;;;;;;;6212186;23;20190;-89
2023/11/22 07:29:58;;;;;;;5.13;1.77;;;;;;;;;;6211002;23;20168;-89
2023/11/22 07:33:06;;;;;;;3.23;1.50;;;;;;;;;;6213225;23;20166;-88
2023/11/22 07:36:14;;;;;;;2.03;1.20;;;;;;;;;;6211857;22;20622;-92
2023/11/22 07:39:27;;;;;;;3.30;1.30;;;;;;;;;;6209486;22;20151;-89
2023/11/22 07:42:31;;;;;;;2.23;1.37;;;;;;;;;;6216151;22;20210;-91
2023/11/22 07:45:38;;;;;;;11.80;1.40;;;;;;;;;;6212283;23;20183;-91
2023/11/22 07:48:47;;;;;;;7.17;1.70;;;;;;;;;;6212699;23;20186;-88
2023/11/22 07:51:52;;;;;;;14.30;1.80;;;;;;;;;;6210151;23;20175;-91
2023/11/22 07:54:59;;;;;;;4.73;1.63;;;;;;;;;;6218154;22;20199;-89
2023/11/22 07:58:06;;;;;;;3.07;1.30;;;;;;;;;;6212481;22;20172;-90
2023/11/22 08:01:13;;;;;;;3.47;1.20;;;;;;;;;;6211501;23;20167;-89
2023/11/22 08:04:20;;;;;;;17.47;2.10;;;;;;;;;;6210210;23;20236;-92
2023/11/22 08:07:26;;;;;;;18.47;3.53;;;;;;;;;;6211552;23;20202;-91
2023/11/22 08:10:31;;;;;;;15.60;2.63;;;;;;;;;;6212165;22;20191;-92
2023/11/22 08:13:37;;;;;;;6.43;1.50;;;;;;;;;;6211002;22;20166;-90
2023/11/22 08:16:42;;;;;;;2.87;1.90;;;;;;;;;;6210822;23;20171;-90
2023/11/22 08:19:50;;;;;;;1.90;1.27;;;;;;;;;;6210528;23;20170;-90
2023/11/22 08:22:55;;;;;;;4.57;1.83;;;;;;;;;;6209626;22;20195;-92
2023/11/22 08:26:00;;;;;;;2.57;1.63;;;;;;;;;;6208728;22;20155;-91
2023/11/22 08:29:07;;;;;;;4.50;2.30;;;;;;;;;;6210065;22;20222;-91
2023/11/22 08:32:13;;;;;;;2.87;1.60;;;;;;;;;;6214905;23;20242;-91
2023/11/22 08:35:19;;;;;;;2.87;2.10;;;;;;;;;;6210994;22;20171;-90
2023/11/22 08:38:25;;;;;;;5.27;1.53;;;;;;;;;;6227784;23;20195;-90
2023/11/22 08:41:31;;;;;;;1.97;1.43;;;;;;;;;;6210774;22;20211;-89
2023/11/22 08:44:36;;;;;;;2.67;1.67;;;;;;;;;;6210362;23;20200;-89
2023/11/22 08:47:42;;;;;;;2.87;1.67;;;;;;;;;;6210664;23;20191;-90
2023/11/22 08:50:49;;;;;;;2.63;1.60;;;;;;;;;;6210018;23;20171;-90
2023/11/22 08:53:54;;;;;;;2.43;1.70;;;;;;;;;;6211320;23;20151;-89
2023/11/22 08:57:00;;;;;;;4.07;2.10;;;;;;;;;;6212735;23;20159;-89
2023/11/22 09:00:08;;;;;;;3.20;2.10;;;;;;;;;;6212258;22;20344;-91
2023/11/22 09:03:13;;;;;;;3.30;1.87;;;;;;;;;;6213433;23;20166;-87
2023/11/22 09:06:20;;;;;;;5.37;2.20;;;;;;;;;;6214126;23;20195;-88
2023/11/22 09:09:30;;;;;;;3.57;2.50;;;;;;;;;;6217039;23;20163;-92
2023/11/22 09:12:36;;;;;;;2.70;2.17;;;;;;;;;;6215367;23;20238;-91
2023/11/22 09:15:41;;;;;;;8.33;2.60;;;;;;;;;;6213818;23;20163;-92
2023/11/22 09:18:47;;;;;;;5.73;3.33;;;;;;;;;;6214649;23;20163;-91
2023/11/22 09:21:53;;;;;;;3.73;2.40;;;;;;;;;;6213333;23;20163;-88
2023/11/22 09:24:59;;;;;;;4.33;2.80;;;;;;;;;;6211762;23;20171;-91
2023/11/22 09:28:04;;;;;;;4.00;2.20;;;;;;;;;;6212215;23;20238;-90
2023/11/22 09:31:11;;;;;;;6.13;3.30;;;;;;;;;;6213475;23;20667;-90
2023/11/22 09:34:16;;;;;;;8.80;3.60;;;;;;;;;;6211704;23;20168;-90
2023/11/22 09:37:23;;;;;;;5.00;3.20;;;;;;;;;;6212468;23;20171;-90
2023/11/22 09:40:31;;;;;;;7.60;3.70;;;;;;;;;;6211503;23;20171;-89
2023/11/22 09:43:38;;;;;;;5.07;2.90;;;;;;;;;;6213112;22;20777;-91
2023/11/22 09:46:45;;;;;;;4.97;3.30;;;;;;;;;;6212601;22;20167;-87
2023/11/22 09:49:52;;;;;;;6.93;3.60;;;;;;;;;;6212998;22;20171;-91
2023/11/22 09:53:04;;;;;;;6.63;4.00;;;;;;;;;;6211945;23;20310;-91
2023/11/22 09:56:10;;;;;;;5.07;3.27;;;;;;;;;;6213433;22;20183;-90
2023/11/22 09:59:16;;;;;;;8.33;3.80;;;;;;;;;;6212010;22;20175;-92
2023/11/22 10:02:26;;;;;;;6.43;3.50;;;;;;;;;;6212109;22;20211;-90
2023/11/22 10:05:33;;;;;;;6.33;3.30;;;;;;;;;;6215849;23;20171;-91
2023/11/22 10:08:40;;;;;;;6.40;3.60;;;;;;;;;;6213121;23;20203;-89
2023/11/22 10:11:50;;;;;;;5.60;3.30;;;;;;;;;;6212702;22;20151;-90
2023/11/22 10:14:56;;;;;;;7.03;3.97;;;;;;;;;;6213252;22;20261;-89
2023/11/22 10:18:02;;;;;;;6.20;3.20;;;;;;;;;;6213100;23;20590;-89
2023/11/22 10:21:20;;;;;;;7.20;3.70;;;;;;;;;;6213815;23;20242;-91
2023/11/22 10:24:32;;;;;;;10.00;4.70;;;;;;;;;;6209821;23;20159;-89
2023/11/22 10:27:40;;;;;;;8.70;3.13;;;;;;;;;;6212330;22;20163;-87
2023/11/22 10:30:45;;;;;;;5.67;2.90;;;;;;;;;;6210655;23;20163;-89
2023/11/22 10:33:52;;;;;;;7.50;3.07;;;;;;;;;;6211178;23;20163;-90
2023/11/22 10:36:58;;;;;;;4.20;2.90;;;;;;;;;;6212940;23;20175;-90
2023/11/22 10:40:06;;;;;;;5.30;3.37;;;;;;;;;;6228509;22;20171;-90
2023/11/22 10:43:12;;;;;;;17.47;6.73;;;;;;;;;;6211258;22;20220;-90
2023/11/22 10:46:18;;;;;;;17.93;5.97;;;;;;;;;;6213047;22;20206;-92
2023/11/22 10:49:23;;;;;;;8.93;4.50;;;;;;;;;;6213468;23;20286;-88
2023/11/22 10:52:29;;;;;;;8.30;3.57;;;;;;;;;;6211918;23;20211;-89
2023/11/22 10:55:38;;;;;;;6.10;3.87;;;;;;;;;;6213801;23;20171;-89
2023/11/22 10:58:48;;;;;;;6.67;3.87;;;;;;;;;;6214675;23;20155;-91
2023/11/22 11:01:54;;;;;;;10.37;6.60;;;;;;;;;;6213045;23;20168;-90
2023/11/22 11:05:02;;;;;;;7.43;4.43;;;;;;;;;;6214035;23;20163;-92
2023/11/22 11:08:10;;;;;;;7.93;3.90;;;;;;;;;;6213651;23;20222;-90
2023/11/22 11:11:17;;;;;;;8.67;3.70;;;;;;;;;;6212018;22;20175;-90
2023/11/22 11:14:23;;;;;;;10.23;4.70;;;;;;;;;;6209700;23;20151;-92
2023/11/22 11:17:28;;;;;;;7.13;3.80;;;;;;;;;;6211483;22;20210;-91
2023/11/22 11:20:34;;;;;;;6.33;3.87;;;;;;;;;;6209645;23;20232;-89
2023/11/22 11:23:43;;;;;;;6.40;3.50;;;;;;;;;;6209897;23;20658;-91
2023/11/22 11:26:52;;;;;;;5.70;3.50;;;;;;;;;;6213677;22;20151;-90
2023/11/22 11:29:57;;;;;;;7.40;3.90;;;;;;;;;;6212112;22;20250;-93
2023/11/22 11:39:45;;;;;;;6.37;3.47;;;;;;;;;;6211148;22;20167;-87
2023/11/22 11:42:53;;;;;;;6.37;3.90;;;;;;;;;;6211536;22;20179;-91
2023/11/22 11:46:02;;;;;;;8.73;4.40;;;;;;;;;;6213474;22;20241;-90
2023/11/22 11:49:21;;;;;;;10.73;5.60;;;;;;;;;;6216809;23;20194;-92
2023/11/22 11:52:35;;;;;;;8.80;4.73;;;;;;;;;;6215227;22;20216;-91
2023/11/22 11:55:44;;;;;;;8.35;4.00;;;;;;;;;;6212557;22;20162;-89
2023/11/22 11:58:57;;;;;;;41.77;14.37;;;;;;;;;;6212352;23;20271;-92
2023/11/22 12:02:05;;;;;;;7.03;4.23;;;;;;;;;;6210954;23;20291;-88
2023/11/22 12:05:11;;;;;;;15.63;6.50;;;;;;;;;;6210599;22;20171;-89
2023/11/22 12:08:17;;;;;;;33.27;11.73;;;;;;;;;;6210532;22;20221;-90
2023/11/22 12:11:22;;;;;;;20.67;8.15;;;;;;;;;;6209429;23;20184;-88
2023/11/22 12:14:28;;;;;;;9.20;4.53;;;;;;;;;;6210446;23;20178;-92
2023/11/22 12:17:34;;;;;;;7.67;3.80;;;;;;;;;;6209213;23;20619;-89
2023/11/22 12:20:42;;;;;;;9.07;4.47;;;;;;;;;;6210848;23;20191;-91
2023/11/22 12:23:48;;;;;;;7.43;3.85;;;;;;;;;;6211213;22;20175;-91
2023/11/22 12:26:55;;;;;;;8.25;4.63;;;;;;;;;;6211439;22;20206;-90
2023/11/22 12:30:01;;;;;;;6.50;3.83;;;;;;;;;;6213331;23;20194;-91
2023/11/22 12:33:08;;;;;;;5.93;3.42;;;;;;;;;;6213207;22;20167;-90
2023/11/22 12:36:16;;;;;;;8.37;4.60;;;;;;;;;;6213038;22;20177;-91
2023/11/22 12:43:07;;;;;;;6.22;4.00;;;;;;;;;;6214962;23;20155;-88
2023/11/22 12:46:16;;;;;;;9.65;4.68;;;;;;;;;;6217424;23;20226;-91
2023/11/22 12:49:22;;;;;;;7.20;3.85;;;;;;;;;;6215265;22;20642;-92
2023/11/22 12:52:28;;;;;;;9.17;4.10;;;;;;;;;;6214568;22;20175;-90
2023/11/22 12:55:33;;;;;;;7.45;3.78;;;;;;;;;;6216239;23;20183;-92
2023/11/22 12:58:39;;;;;;;5.90;3.60;;;;;;;;;;6215862;22;20151;-89
2023/11/22 13:01:46;;;;;;;5.95;3.90;;;;;;;;;;6218540;22;20195;-94
2023/11/22 13:04:54;;;;;;;9.73;4.33;;;;;;;;;;6216798;22;20175;-90
2023/11/22 13:07:59;;;;;;;6.13;3.87;;;;;;;;;;6216408;23;20186;-91
2023/11/22 13:11:07;;;;;;;6.97;4.10;;;;;;;;;;6214145;22;20235;-90
2023/11/22 13:14:14;;;;;;;5.88;3.60;;;;;;;;;;6214316;22;20171;-90
2023/11/22 13:17:20;;;;;;;11.32;3.40;;;;;;;;;;6213963;23;20507;-88
2023/11/22 13:20:25;;;;;;;8.38;3.88;;;;;;;;;;6215630;22;20283;-88
2023/11/22 13:23:30;;;;;;;7.65;3.88;;;;;;;;;;6214281;22;20167;-90
2023/11/22 13:26:36;;;;;;;9.13;5.20;;;;;;;;;;6214102;23;20166;-88
2023/11/22 13:29:43;;;;;;;7.85;4.32;;;;;;;;;;6212977;22;20310;-91
2023/11/22 13:32:50;;;;;;;13.13;6.15;;;;;;;;;;6218353;22;20203;-90
2023/11/22 13:35:58;;;;;;;7.87;4.60;;;;;;;;;;6217429;22;20167;-90
2023/11/22 13:42:23;;;;;;;8.53;4.60;;;;;;;;;;6217255;22;20215;-90
2023/11/22 13:45:29;;;;;;;8.87;4.30;;;;;;;;;;6217727;22;20187;-92
2023/11/22 13:48:36;;;;;;;10.07;5.03;;;;;;;;;;6213970;23;20170;-92
2023/11/22 13:51:42;;;;;;;8.00;4.40;;;;;;;;;;6216837;22;20151;-93
2023/11/22 13:54:56;;;;;;;7.73;4.47;;;;;;;;;;6217442;23;20162;-92
2023/11/22 13:58:07;;;;;;;8.03;4.50;;;;;;;;;;6221647;23;20211;-90
2023/11/22 14:01:21;;;;;;;8.73;4.47;;;;;;;;;;6214468;23;20168;-90
2023/11/22 14:04:28;;;;;;;7.70;4.40;;;;;;;;;;6235524;22;20155;-89
2023/11/22 14:07:34;;;;;;;8.80;4.90;;;;;;;;;;6216465;22;20190;-91
2023/11/22 14:10:40;;;;;;;11.17;5.00;;;;;;;;;;6218516;23;20211;-89
2023/11/22 14:13:46;;;;;;;6.97;4.00;;;;;;;;;;6214457;23;20171;-90
2023/11/22 14:16:59;;;;;;;11.57;4.27;;;;;;;;;;6212954;23;20219;-91
2023/11/22 14:20:09;;;;;;;8.80;4.53;;;;;;;;;;6215402;22;20179;-90
2023/11/22 14:23:17;;;;;;;8.03;4.60;;;;;;;;;;6216652;22;20248;-93
2023/11/22 14:26:29;;;;;;;7.00;4.47;;;;;;;;;;6217279;23;20210;-90
2023/11/22 14:29:35;;;;;;;7.73;4.60;;;;;;;;;;6217137;23;20195;-91
2023/11/22 14:32:40;;;;;;;7.90;4.60;;;;;;;;;;6213306;22;20163;-90
2023/11/22 14:35:52;;;;;;;9.50;5.17;;;;;;;;;;6217681;22;20174;-87
2023/11/22 14:38:57;;;;;;;10.30;5.20;;;;;;;;;;6217611;22;20174;-90
2023/11/22 14:42:05;;;;;;;8.43;4.70;;;;;;;;;;6217069;23;20175;-91
2023/11/22 14:45:12;;;;;;;9.13;4.67;;;;;;;;;;6215525;23;20214;-89
2023/11/22 14:48:19;;;;;;;8.83;4.90;;;;;;;;;;6213738;23;20171;-90
2023/11/22 14:51:27;;;;;;;8.90;4.40;;;;;;;;;;6214932;22;20194;-89
2023/11/22 14:54:38;;;;;;;10.33;4.87;;;;;;;;;;6198713;23;20163;-89
2023/11/22 14:57:43;;;;;;;9.93;5.20;;;;;;;;;;6213617;23;20175;-89
2023/11/22 15:00:48;;;;;;;14.10;9.67;;;;;;;;;;6212754;23;20155;-90
2023/11/22 15:03:54;;;;;;;20.73;11.20;;;;;;;;;;6215151;22;20171;-92
2023/11/22 15:07:14;;;;;;;14.53;8.10;;;;;;;;;;6216842;23;20503;-90
2023/11/22 15:10:21;;;;;;;9.33;5.33;;;;;;;;;;6214058;23;20242;-88
2023/11/22 15:13:27;;;;;;;11.87;5.30;;;;;;;;;;6214357;23;20195;-89
2023/11/22 15:16:32;;;;;;;12.43;5.63;;;;;;;;;;6215179;23;20167;-90
2023/11/22 15:19:38;;;;;;;14.73;5.47;;;;;;;;;;6214666;23;20168;-89
2023/11/22 15:22:43;;;;;;;16.70;5.87;;;;;;;;;;6216736;23;20211;-87
2023/11/22 15:25:50;;;;;;;12.50;5.07;;;;;;;;;;6216202;23;20166;-91
2023/11/22 15:28:56;;;;;;;14.20;6.07;;;;;;;;;;6213940;23;20187;-89
2023/11/22 15:32:06;;;;;;;48.03;17.40;;;;;;;;;;6214515;23;20167;-89
2023/11/22 15:35:11;;;;;;;46.50;16.53;;;;;;;;;;6214486;22;20167;-90
2023/11/22 15:38:17;;;;;;;55.23;20.40;;;;;;;;;;6199880;23;20163;-92
2023/11/22 15:41:23;;;;;;;28.33;10.87;;;;;;;;;;6216358;23;20171;-91
2023/11/22 15:44:29;;;;;;;21.47;9.47;;;;;;;;;;6214734;22;20167;-88
2023/11/22 15:47:35;;;;;;;16.40;7.20;;;;;;;;;;6215104;22;20167;-92
2023/11/22 15:50:41;;;;;;;24.27;9.60;;;;;;;;;;6214580;22;20198;-91
2023/11/22 15:53:47;;;;;;;25.20;10.57;;;;;;;;;;6215831;23;20171;-90
2023/11/22 15:56:56;;;;;;;11.40;6.23;;;;;;;;;;6216086;23;20891;-91
2023/11/22 16:00:04;;;;;;;14.80;5.00;;;;;;;;;;6217143;22;20207;-89
2023/11/22 16:03:18;;;;;;;13.43;7.00;;;;;;;;;;6234676;22;20206;-90
2023/11/22 16:06:26;;;;;;;12.93;6.27;;;;;;;;;;6215658;23;20202;-89
2023/11/22 16:09:31;;;;;;;11.93;6.67;;;;;;;;;;6215433;23;20285;-87
2023/11/22 16:12:38;;;;;;;10.20;5.63;;;;;;;;;;6212260;23;20174;-91
2023/11/22 16:15:46;;;;;;;11.00;5.40;;;;;;;;;;6229937;22;20179;-90
2023/11/22 16:18:51;;;;;;;10.70;5.10;;;;;;;;;;6212051;23;20175;-89
2023/11/22 16:21:56;;;;;;;11.00;5.57;;;;;;;;;;6214727;23;20187;-91
2023/11/22 16:25:07;;;;;;;13.00;5.20;;;;;;;;;;6214954;23;20166;-91
2023/11/22 16:28:14;;;;;;;16.53;7.43;;;;;;;;;;6211063;23;20187;-92
2023/11/22 16:31:20;;;;;;;15.53;7.23;;;;;;;;;;6211928;22;20171;-90
2023/11/22 16:34:25;;;;;;;13.63;5.93;;;;;;;;;;6212173;23;20170;-92
2023/11/22 16:37:31;;;;;;;11.33;5.90;;;;;;;;;;6193000;23;20172;-90
2023/11/22 16:40:36;;;;;;;11.87;5.97;;;;;;;;;;6208196;23;20171;-89
2023/11/22 16:43:44;;;;;;;11.70;6.23;;;;;;;;;;6215561;22;20168;-93
2023/11/22 16:46:49;;;;;;;13.97;6.03;;;;;;;;;;6209027;22;20234;-88
2023/11/22 16:49:54;;;;;;;14.57;6.80;;;;;;;;;;6213665;23;20307;-91
2023/11/22 16:52:59;;;;;;;11.27;6.10;;;;;;;;;;6212343;23;20650;-89
2023/11/22 16:56:05;;;;;;;10.87;6.27;;;;;;;;;;6210195;23;20209;-88
2023/11/22 16:59:12;;;;;;;14.83;6.70;;;;;;;;;;6211817;23;20170;-88
2023/11/22 17:02:18;;;;;;;12.47;6.17;;;;;;;;;;6213489;23;20288;-91
2023/11/22 17:05:23;;;;;;;14.17;6.10;;;;;;;;;;6214683;23;20207;-88
2023/11/22 17:08:31;;;;;;;21.17;10.03;;;;;;;;;;6215137;22;20171;-92
2023/11/22 17:11:37;;;;;;;25.53;12.33;;;;;;;;;;6214011;23;20171;-89
2023/11/22 17:14:44;;;;;;;11.20;6.83;;;;;;;;;;6210674;23;20319;-91
2023/11/22 17:17:50;;;;;;;111.60;36.53;;;;;;;;;;6211859;23;20606;-92
2023/11/22 17:20:56;;;;;;;113.60;42.53;;;;;;;;;;6216266;23;20199;-89
2023/11/22 17:24:04;;;;;;;55.50;23.07;;;;;;;;;;6215197;23;20214;-90
2023/11/22 17:27:10;;;;;;;42.13;17.80;;;;;;;;;;6215858;22;20150;-91
2023/11/22 17:30:17;;;;;;;21.83;9.47;;;;;;;;;;6213719;22;20267;-92
2023/11/22 17:33:22;;;;;;;15.50;7.57;;;;;;;;;;6213938;23;20195;-88
2023/11/22 17:36:33;;;;;;;21.43;10.63;;;;;;;;;;6219040;22;20216;-89
2023/11/22 17:39:39;;;;;;;15.37;7.63;;;;;;;;;;6215426;22;20167;-91
2023/11/22 17:42:45;;;;;;;14.47;7.77;;;;;;;;;;6216748;22;20275;-91
2023/11/22 17:45:55;;;;;;;15.63;8.40;;;;;;;;;;6216701;23;20234;-93
2023/11/22 17:49:00;;;;;;;14.27;6.93;;;;;;;;;;6213271;23;20187;-92
2023/11/22 17:52:06;;;;;;;10.97;6.10;;;;;;;;;;6213263;23;20238;-87
2023/11/22 17:55:11;;;;;;;15.10;7.83;;;;;;;;;;6212535;22;20154;-90
2023/11/22 17:58:19;;;;;;;13.43;6.87;;;;;;;;;;6215837;22;20202;-93
2023/11/22 18:01:28;;;;;;;14.50;7.67;;;;;;;;;;6213274;23;20171;-89
2023/11/22 18:04:34;;;;;;;15.87;8.17;;;;;;;;;;6213659;23;20210;-90
2023/11/22 18:07:40;;;;;;;16.90;8.47;;;;;;;;;;6212814;22;20225;-89
2023/11/22 18:10:49;;;;;;;18.33;8.33;;;;;;;;;;6212380;23;20195;-90
2023/11/22 18:13:58;;;;;;;20.17;10.20;;;;;;;;;;6210033;23;20175;-89
2023/11/22 18:17:06;;;;;;;28.50;12.10;;;;;;;;;;6212522;23;20174;-89
2023/11/22 18:20:12;;;;;;;28.87;11.90;;;;;;;;;;6214036;23;20183;-87
2023/11/22 18:23:18;;;;;;;25.47;11.73;;;;;;;;;;6213859;23;20207;-90
2023/11/22 18:26:23;;;;;;;29.27;12.90;;;;;;;;;;6213695;22;20167;-92
2023/11/22 18:29:29;;;;;;;27.53;12.00;;;;;;;;;;6213455;23;20171;-90
2023/11/22 18:32:52;;;;;;;28.80;12.47;;;;;;;;;;6217790;23;20156;-87
2023/11/22 18:39:34;;;;;;;26.30;12.57;;;;;;;;;;6212693;23;20622;-90
2023/11/22 18:42:40;;;;;;;30.07;13.17;;;;;;;;;;6210101;23;20171;-89
2023/11/22 18:45:46;;;;;;;27.03;12.37;;;;;;;;;;6217237;23;20163;-89
2023/11/22 19:06:22;;;;;;;29.67;12.97;;;;;;;;;;6216943;23;20191;-91